WIMM/MES METAR and TAF weather

Enter ICAO airport designator
Station Type Date Time Source
WIMM METAR 2019/09/18 00:00 UTC NOAA

WIMM 180000Z 21003KT 4000 HZ SCT017 25/24 Q1010 NOSIG


Station Type Date Time Source
WIMM Decoded METAR 2019/09/18 00:00 UTC NOAA

Medan / Polonia, Indonesia (WIMM) 03-34N 098-41E 25M
Sep 17, 2019 - 08:00 PM EDT / 2019.09.18 0000 UTC
Wind: from the SSW (210 degrees) at 3 MPH (3 KT):0
Visibility: 2 mile(s):0
Sky conditions: partly cloudy
Weather: haze
Temperature: 77 F (25 C)
Dew Point: 75 F (24 C)
Relative Humidity: 94%
Pressure (altimeter): 29.83 in. Hg (1010 hPa)
ob: WIMM 180000Z 21003KT 4000 HZ SCT017 25/24 Q1010 NOSIG
cycle: 0

Station Type Date Time Source
WIMM TAF 2019/10/14 06:09 UTC NOAA

TAF WIMM 140500Z 1406/1506 03010KT 8000 SCT017
BECMG 1411/1413 VRB04KT 3000 BR

Example: see airport list